Flight Information

DEPARTURE
,
Elevation:
DESTINATION
,
Elevation:
TPA:
1000 (est.)


0 NM180° True-66° Var114° HDG

Flight Plan:
(click to file on line)

1. Type
2. Aircraft Identification
3. Aircraft Type / Special Equipment
4. True Airspeed
kts
5. Departure Airport
(ICAO code)
6. Arriving Airport
(ICAO code)
7. Cruising Altitude
ft
8. Alternate Airport
(ICAO code)
9. Route of Flight
10. Remarks


00:00:00 Departure ATIS: Destination ATIS:

Clearance Limit:
Route:
Altitude: Expect in minutes
Frequency:
Transponder: (7500 Hijack / 7600 Lost Comms / 7700 Emergency)


KDLF 030655Z AUTO 04006KT 10SM CLR 15/12 A3010 RMK AO2 SLP185 T01490118 $
Time: 2022-10-03T06:55:00Z
1664783565
Winds: 40 @ 6 kts
Visibility: 10.0 sm
Clouds (AGL): CLR
Temperature: 14.9 C
Dew Point: 11.8 C
Pressure: 30.100393 in Hgbr

KDLF 030655Z AUTO 04006KT 10SM CLR 15/12 A3010 RMK AO2 SLP185 T01490118 $
Time: 2022-10-03T06:55:00Z
1664783565
Winds: 40 @ 6 kts
Visibility: 10.0 sm
Clouds (AGL): CLR
Temperature: 14.9 C
Dew Point: 11.8 C
Pressure: 30.100393 in Hgbr


Notes:

Data extracted from FAA Digital Chart Supplement. Effective: 0901Z Thursday, 27 JAN 2022 to 0900z Thursday, 24 MAR 2022
Current ATIS data is provided courtisy of PilotEdge.